Time;durP1;ratioP1;P1;durP2;ratioP2;P2;SDS_P1;SDS_P2;PMS_P1;PMS_P2;Temp;Humidity;BMP_temperature;BMP_pressure;BME280_temperature;BME280_humidity;BME280_pressure;Samples;Min_cycle;Max_cycle;Signal;HPM_P1;HPM_P2
2022/07/17 00:02:19;;;;;;;9.32;5.57;;;10.60;1.00;;;11.32;100.00;99114.03;5021534;28;129674;-73
2022/07/17 00:04:47;;;;;;;8.88;5.93;;;10.60;1.00;;;11.33;100.00;99109.41;5020295;28;121895;-74
2022/07/17 00:07:16;;;;;;;8.23;6.28;;;10.80;1.00;;;11.42;100.00;99110.16;5020205;28;122417;-72
2022/07/17 00:09:45;;;;;;;9.18;5.75;;;10.80;1.00;;;11.46;100.00;99116.53;5021248;28;130393;-73
2022/07/17 00:12:14;;;;;;;9.98;6.10;;;10.80;1.00;;;11.48;100.00;99110.78;5006398;28;128732;-72
2022/07/17 00:14:44;;;;;;;9.35;5.85;;;10.80;1.00;;;11.51;100.00;99110.13;5006737;28;118664;-74
2022/07/17 00:17:14;;;;;;;11.52;5.93;;;10.90;1.00;;;11.57;100.00;99116.19;5006527;28;118019;-75
2022/07/17 00:19:43;;;;;;;10.85;6.30;;;10.90;1.00;;;11.61;100.00;99117.91;5024180;28;132204;-74
2022/07/17 00:22:11;;;;;;;9.20;5.75;;;10.90;1.00;;;11.63;100.00;99123.81;5021134;28;130242;-74
2022/07/17 00:24:40;;;;;;;8.57;5.88;;;10.90;1.00;;;11.65;100.00;99120.75;5003224;28;119391;-75
2022/07/17 00:27:09;;;;;;;10.68;5.93;;;10.90;1.00;;;11.72;100.00;99121.06;5021337;28;119589;-72
2022/07/17 00:29:37;;;;;;;10.35;6.55;;;10.90;1.00;;;11.73;100.00;99121.84;5019123;28;130569;-72
2022/07/17 00:32:07;;;;;;;8.50;5.78;;;11.00;1.00;;;11.77;100.00;99117.34;5002819;28;129392;-72
2022/07/17 00:34:36;;;;;;;10.82;5.65;;;11.10;1.00;;;11.68;100.00;99111.94;5021089;28;119690;-72
2022/07/17 00:37:05;;;;;;;11.95;7.53;;;11.10;1.00;;;11.56;100.00;99115.38;5021061;28;119778;-73
2022/07/17 00:39:34;;;;;;;10.52;7.10;;;11.00;1.00;;;11.48;100.00;99122.44;5020890;28;129904;-73
2022/07/17 00:42:02;;;;;;;10.32;5.68;;;11.00;1.00;;;11.41;100.00;99122.16;5021021;28;129290;-74
2022/07/17 00:44:31;;;;;;;10.70;5.90;;;11.00;1.00;;;11.35;100.00;99111.81;5020950;28;119633;-72
2022/07/17 00:46:59;;;;;;;10.35;5.95;;;11.00;1.00;;;11.35;100.00;99112.59;5021975;28;119792;-73
2022/07/17 00:49:29;;;;;;;11.80;6.10;;;11.10;1.00;;;11.42;100.00;99112.88;5020066;28;130011;-74
2022/07/17 00:51:58;;;;;;;8.25;5.78;;;11.10;1.00;;;11.56;100.00;99112.66;5006020;28;128199;-74
2022/07/17 00:54:27;;;;;;;9.48;6.53;;;11.10;1.00;;;11.59;100.00;99106.53;5004849;28;121278;-74
2022/07/17 00:57:00;;;;;;;11.32;6.22;;;11.10;1.00;;;11.62;100.00;99107.81;5022852;28;121940;-73
2022/07/17 00:59:32;;;;;;;10.93;6.07;;;11.10;1.00;;;11.59;100.00;99105.75;5002039;28;130347;-72
2022/07/17 01:02:03;;;;;;;8.13;5.63;;;11.10;1.00;;;11.59;100.00;99097.59;5019645;27;130163;-72
2022/07/17 01:04:33;;;;;;;10.10;5.28;;;11.00;1.00;;;11.55;100.00;99099.41;5020944;28;119552;-73
2022/07/17 01:07:03;;;;;;;8.52;5.45;;;11.00;1.00;;;11.54;100.00;99092.38;5020637;28;119665;-72
2022/07/17 01:09:33;;;;;;;8.45;5.53;;;11.00;1.00;;;11.52;100.00;99096.19;5005299;28;128969;-73
2022/07/17 01:12:02;;;;;;;8.77;5.35;;;11.00;1.00;;;11.51;100.00;99094.63;5020554;28;129378;-74
2022/07/17 01:14:32;;;;;;;12.23;6.43;;;11.00;1.00;;;11.49;100.00;99096.06;5005665;28;119099;-74
2022/07/17 01:17:02;;;;;;;12.13;6.63;;;11.00;1.00;;;11.53;100.00;99097.00;5019298;28;119240;-73
2022/07/17 01:19:32;;;;;;;12.98;6.90;;;10.90;1.00;;;11.54;100.00;99089.66;5019225;28;129597;-74
2022/07/17 01:22:02;;;;;;;10.20;6.63;;;10.90;1.00;;;11.48;100.00;99083.59;5020005;28;130114;-74
2022/07/17 01:24:31;;;;;;;9.27;5.75;;;10.90;1.00;;;11.40;100.00;99082.50;5022682;28;119113;-74
2022/07/17 01:27:00;;;;;;;9.48;6.35;;;10.80;1.00;;;11.38;100.00;99073.91;5002501;28;119673;-74
2022/07/17 01:29:29;;;;;;;11.82;6.55;;;10.80;1.00;;;11.29;100.00;99081.28;5019446;28;129954;-73
2022/07/17 01:31:57;;;;;;;10.38;6.50;;;10.80;1.00;;;11.25;100.00;99081.16;5020375;28;129522;-74
2022/07/17 01:34:26;;;;;;;9.43;5.80;;;10.70;1.00;;;11.24;100.00;99078.75;5034784;27;119449;-73
2022/07/17 01:36:54;;;;;;;10.70;6.22;;;10.70;1.00;;;11.26;100.00;99077.28;5042691;27;118349;-73
2022/07/17 01:42:07;;;;;;;10.13;6.20;;;10.70;1.00;;;11.38;100.00;99079.34;5041706;27;129379;-73
2022/07/17 01:44:36;;;;;;;9.00;5.90;;;10.70;1.00;;;11.37;100.00;99071.50;5039066;27;123027;-73
2022/07/17 01:47:05;;;;;;;10.02;6.00;;;10.70;1.00;;;11.39;100.00;99070.06;5025647;27;120896;-72
2022/07/17 01:49:34;;;;;;;10.57;6.43;;;10.70;1.00;;;11.39;100.00;99069.25;5039923;27;129952;-73
2022/07/17 01:52:03;;;;;;;11.65;6.63;;;10.70;1.00;;;11.36;100.00;99069.91;5039840;27;129494;-73
2022/07/17 01:54:34;;;;;;;10.77;6.72;;;10.70;1.00;;;11.33;100.00;99071.38;5040245;27;119547;-73
2022/07/17 01:57:03;;;;;;;10.30;6.22;;;10.80;1.00;;;11.26;100.00;99079.22;5041823;27;118540;-74
2022/07/17 01:59:32;;;;;;;10.95;6.53;;;10.80;1.00;;;11.28;100.00;99079.69;5041601;27;129814;-73
2022/07/17 02:02:00;;;;;;;9.80;6.05;;;10.80;1.00;;;11.32;100.00;99077.91;5040243;27;129700;-74
2022/07/17 02:04:29;;;;;;;10.85;6.38;;;10.80;1.00;;;11.35;100.00;99085.41;5040580;27;120172;-73
2022/07/17 02:06:57;;;;;;;9.77;6.20;;;10.80;1.00;;;11.44;100.00;99078.03;5025132;27;119390;-72
2022/07/17 02:09:26;;;;;;;8.95;6.10;;;10.90;1.00;;;11.57;100.00;99075.41;5024521;27;129455;-73
2022/07/17 02:11:57;;;;;;;11.57;6.60;;;10.90;1.00;;;11.62;100.00;99083.38;5039510;27;129483;-73
2022/07/17 02:14:26;;;;;;;9.50;6.10;;;10.90;1.00;;;11.61;100.00;99081.75;5043720;27;120505;-72
2022/07/17 02:16:55;;;;;;;11.25;6.32;;;10.90;1.00;;;11.60;100.00;99080.97;5043579;27;119368;-74
2022/07/17 02:19:24;;;;;;;9.68;6.45;;;10.90;1.00;;;11.59;100.00;99073.94;5043196;27;129854;-73
2022/07/17 02:21:53;;;;;;;11.13;5.97;;;11.00;99.90;;;11.57;100.00;99076.19;5028400;27;128506;-74
2022/07/17 02:24:22;;;;;;;10.00;5.47;;;11.00;99.90;;;11.61;100.00;99065.44;5043438;27;119737;-74
2022/07/17 02:26:51;;;;;;;12.15;6.18;;;11.00;99.90;;;11.71;100.00;99075.97;5028454;27;119829;-73
2022/07/17 02:29:21;;;;;;;8.52;5.60;;;11.00;99.90;;;11.85;100.00;99071.06;5042985;27;129838;-73
2022/07/17 02:31:50;;;;;;;11.93;6.13;;;11.10;99.90;;;11.99;100.00;99072.78;5011224;27;128259;-73
2022/07/17 02:34:19;;;;;;;10.38;5.57;;;11.20;99.90;;;12.01;100.00;99078.66;5041888;27;121781;-74
2022/07/17 02:36:47;;;;;;;8.70;5.35;;;11.10;99.90;;;12.07;100.00;99082.78;5043235;27;122021;-74
2022/07/17 02:39:16;;;;;;;15.80;5.05;;;11.20;99.90;;;12.07;100.00;99076.56;5043109;27;130117;-73
2022/07/17 02:41:44;;;;;;;9.00;4.80;;;11.20;99.90;;;12.08;100.00;99078.16;5024417;27;129433;-72
2022/07/17 02:44:13;;;;;;;9.20;5.25;;;11.20;99.90;;;12.08;100.00;99078.94;5028236;27;118548;-72
2022/07/17 02:46:43;;;;;;;8.65;5.00;;;11.20;99.90;;;12.11;100.00;99077.50;5042982;27;119579;-73
2022/07/17 02:49:11;;;;;;;8.38;5.00;;;11.20;99.90;;;12.26;100.00;99071.44;5042492;27;130232;-74
2022/07/17 02:51:40;;;;;;;8.77;4.47;;;11.30;99.90;;;12.32;100.00;99069.31;5043094;27;129439;-72
2022/07/17 02:54:09;;;;;;;13.98;5.85;;;11.30;99.90;;;12.36;100.00;99072.97;5044917;27;119590;-72
2022/07/17 02:56:37;;;;;;;8.43;4.60;;;11.40;99.90;;;12.34;100.00;99069.75;5027620;27;118832;-72
2022/07/17 02:59:06;;;;;;;7.70;4.68;;;11.40;99.90;;;12.44;100.00;99074.03;5026460;27;128893;-72
2022/07/17 03:01:34;;;;;;;10.70;4.60;;;11.50;99.90;;;12.61;100.00;99083.94;5042511;27;129813;-73
2022/07/17 03:04:05;;;;;;;8.55;5.22;;;11.50;99.90;;;12.85;100.00;99094.91;5042889;27;119973;-74
2022/07/17 03:06:34;;;;;;;9.07;4.82;;;11.70;99.90;;;13.03;100.00;99100.19;5027851;27;119269;-72
2022/07/17 03:09:02;;;;;;;9.20;5.00;;;11.80;99.90;;;13.00;100.00;99111.75;5024123;27;130019;-72
2022/07/17 03:11:31;;;;;;;9.82;4.65;;;11.70;99.90;;;12.85;100.00;99110.44;5010892;27;129168;-76
2022/07/17 03:13:59;;;;;;;10.13;4.32;;;11.70;99.90;;;12.82;100.00;99111.91;5042882;27;119544;-73
2022/07/17 03:16:28;;;;;;;8.60;4.07;;;11.70;99.90;;;12.95;100.00;99119.00;5043068;27;120106;-73
2022/07/17 03:18:56;;;;;;;8.93;4.60;;;11.90;99.90;;;13.27;100.00;99111.09;5020724;28;129848;-74
2022/07/17 03:21:26;;;;;;;5.95;3.83;;;12.10;99.90;;;13.52;100.00;99115.81;5034141;27;129347;-73
2022/07/17 03:23:55;;;;;;;11.63;4.05;;;12.20;99.90;;;13.55;100.00;99110.47;5040473;27;122484;-73
2022/07/17 03:26:24;;;;;;;6.47;3.28;;;12.40;99.90;;;13.50;100.00;99113.44;5042445;27;122426;-73
2022/07/17 03:28:53;;;;;;;7.53;3.35;;;12.40;99.90;;;13.56;100.00;99112.06;5042144;27;130009;-73
2022/07/17 03:31:21;;;;;;;5.80;3.40;;;12.40;99.90;;;13.62;100.00;99116.16;5027086;27;128608;-74
2022/07/17 03:33:50;;;;;;;7.20;3.75;;;12.30;99.90;;;13.69;100.00;99114.78;5042231;27;119725;-74
2022/07/17 03:36:18;;;;;;;7.75;3.60;;;12.30;99.90;;;13.74;100.00;99107.16;5042357;27;119215;-73
2022/07/17 03:38:49;;;;;;;6.63;4.00;;;12.40;99.90;;;13.84;100.00;99106.72;5041776;27;130406;-73
2022/07/17 03:41:18;;;;;;;6.13;3.38;;;12.60;99.90;;;13.98;100.00;99111.81;5042335;27;129016;-73
2022/07/17 03:43:46;;;;;;;5.78;3.03;;;12.60;99.90;;;13.99;100.00;99107.94;5027075;27;118744;-72
2022/07/17 03:46:15;;;;;;;7.25;3.78;;;12.50;99.90;;;14.05;100.00;99113.16;5042299;27;119484;-73
2022/07/17 03:48:44;;;;;;;6.60;3.67;;;12.60;99.90;;;14.15;100.00;99115.44;5026006;27;129232;-73
2022/07/17 03:51:13;;;;;;;6.10;3.40;;;12.80;99.90;;;14.21;100.00;99119.50;5041605;27;129396;-73
2022/07/17 03:53:41;;;;;;;6.70;3.50;;;12.80;99.90;;;14.29;100.00;99126.75;5044109;27;119558;-73
2022/07/17 03:56:12;;;;;;;5.60;3.30;;;12.90;99.90;;;14.34;100.00;99123.78;5043246;27;119973;-74
2022/07/17 03:58:40;;;;;;;7.38;3.90;;;12.80;99.90;;;14.36;100.00;99118.75;5040280;27;129621;-73
2022/07/17 04:01:09;;;;;;;5.82;3.05;;;12.90;99.90;;;14.44;100.00;99118.97;5026657;27;129671;-74
2022/07/17 04:03:38;;;;;;;4.85;2.88;;;13.00;99.90;;;14.25;100.00;99130.50;5042095;27;119474;-73
2022/07/17 04:06:07;;;;;;;6.18;3.40;;;13.00;99.90;;;14.41;100.00;99127.84;5042697;27;119866;-74
2022/07/17 04:08:35;;;;;;;6.32;3.08;;;13.10;99.90;;;14.60;100.00;99136.25;5041598;27;130946;-74
2022/07/17 04:11:04;;;;;;;6.35;2.83;;;13.20;99.90;;;14.74;100.00;99122.97;5041404;27;129752;-74
2022/07/17 04:13:34;;;;;;;4.60;2.90;;;13.30;99.90;;;14.88;100.00;99119.84;5040844;27;122139;-75
2022/07/17 04:16:03;;;;;;;6.50;2.72;;;13.30;99.90;;;14.84;100.00;99118.94;5042018;27;121848;-75
2022/07/17 04:18:34;;;;;;;4.15;2.72;;;13.30;99.90;;;14.83;100.00;99128.28;5026999;27;129142;-76
2022/07/17 04:21:04;;;;;;;5.10;2.88;;;13.30;99.90;;;14.81;100.00;99127.06;5041672;27;129450;-73
2022/07/17 04:23:33;;;;;;;5.40;2.88;;;13.30;99.90;;;14.94;100.00;99128.56;5042076;27;119812;-73
2022/07/17 04:26:02;;;;;;;5.30;2.83;;;13.50;99.90;;;15.10;99.84;99125.88;5026356;27;119141;-73
2022/07/17 04:28:31;;;;;;;6.18;2.65;;;13.60;99.90;;;15.21;98.34;99137.88;5009357;27;129355;-73
2022/07/17 04:31:01;;;;;;;4.53;2.47;;;13.40;99.90;;;15.28;97.11;99132.56;5041585;27;129163;-74
2022/07/17 04:33:29;;;;;;;5.10;2.88;;;13.50;99.90;;;14.92;99.49;99119.94;5026641;27;119208;-75
2022/07/17 04:35:58;;;;;;;5.90;2.78;;;13.30;99.90;;;14.23;100.00;99125.41;5022383;27;119422;-74
2022/07/17 04:38:26;;;;;;;5.30;3.22;;;13.20;99.90;;;14.14;100.00;99125.53;5021563;27;130699;-73
2022/07/17 04:40:55;;;;;;;3.55;2.17;;;13.20;99.90;;;13.97;100.00;99125.78;5041238;27;130155;-74
2022/07/17 04:43:24;;;;;;;5.40;2.90;;;13.20;99.90;;;14.17;100.00;99129.50;5041507;27;120070;-74
2022/07/17 04:45:53;;;;;;;6.40;2.70;;;13.30;99.90;;;14.13;100.00;99132.13;5041241;27;119871;-71
2022/07/17 04:48:23;;;;;;;6.25;2.63;;;13.30;99.90;;;14.40;100.00;99127.06;5040657;27;130498;-72
2022/07/17 04:50:51;;;;;;;4.32;2.63;;;13.50;99.90;;;14.32;100.00;99120.59;5040656;27;129410;-73
2022/07/17 04:53:20;;;;;;;3.17;2.10;;;13.50;99.90;;;14.59;100.00;99126.44;5022968;27;119684;-74
2022/07/17 04:55:48;;;;;;;5.57;2.78;;;13.70;99.90;;;14.45;100.00;99123.31;5025630;27;118166;-73
2022/07/17 04:58:18;;;;;;;5.97;2.35;;;13.60;99.90;;;14.41;100.00;99133.31;5040592;27;129990;-75
2022/07/17 05:00:47;;;;;;;4.22;2.50;;;13.50;99.90;;;14.66;100.00;99134.88;5040872;27;129942;-76
2022/07/17 05:03:16;;;;;;;5.40;2.13;;;13.70;99.90;;;14.67;98.00;99136.44;5039956;27;122545;-75
2022/07/17 05:05:46;;;;;;;4.03;2.05;;;13.70;99.90;;;14.87;100.00;99144.78;5040851;27;121816;-73
2022/07/17 05:08:16;;;;;;;5.50;2.45;;;13.90;99.90;;;15.03;97.77;99147.53;5040543;27;129894;-75
2022/07/17 05:10:45;;;;;;;5.05;2.30;;;13.90;99.90;;;15.01;95.81;99150.63;5040627;27;129321;-74
2022/07/17 05:13:13;;;;;;;6.57;2.40;;;14.00;99.90;;;14.86;98.17;99146.69;5040702;27;119670;-75
2022/07/17 05:15:42;;;;;;;4.30;1.90;;;13.90;99.90;;;14.81;97.96;99137.97;5042747;27;119009;-72
2022/07/17 05:18:10;;;;;;;6.40;2.33;;;13.90;99.90;;;14.68;99.08;99139.97;5040363;27;130417;-74
2022/07/17 05:20:41;;;;;;;3.80;2.50;;;13.90;99.90;;;14.83;97.88;99143.88;5025830;27;129032;-74
2022/07/17 05:23:11;;;;;;;5.80;2.55;;;14.00;99.90;;;14.94;98.35;99147.69;5040807;27;120147;-75
2022/07/17 05:25:40;;;;;;;4.55;2.45;;;14.00;99.90;;;15.02;97.03;99154.94;5040756;27;119313;-75
2022/07/17 05:28:09;;;;;;;6.95;2.67;;;14.00;99.90;;;14.66;99.64;99140.31;5023785;27;128919;-73
2022/07/17 05:30:38;;;;;;;4.68;2.28;;;14.00;99.90;;;14.96;100.00;99145.41;5021773;27;129546;-74
2022/07/17 05:33:06;;;;;;;4.15;2.08;;;14.30;99.90;;;15.03;95.72;99137.41;5040659;27;120047;-73
2022/07/17 05:35:35;;;;;;;7.80;2.30;;;14.30;99.90;;;15.13;94.28;99146.22;5040624;27;119807;-74
2022/07/17 05:38:05;;;;;;;6.45;2.00;;;14.30;99.90;;;14.93;95.96;99148.84;5040195;27;129873;-73
2022/07/17 05:40:35;;;;;;;6.30;2.42;;;14.30;99.90;;;14.98;95.83;99145.84;5039828;27;129560;-73
2022/07/17 05:43:03;;;;;;;5.43;2.42;;;14.20;99.90;;;14.70;98.15;99146.66;5040906;27;119887;-74
2022/07/17 05:45:32;;;;;;;3.50;2.17;;;13.90;99.90;;;14.41;100.00;99157.88;5040804;27;120247;-75
2022/07/17 05:48:00;;;;;;;4.75;2.55;;;13.80;99.90;;;14.51;100.00;99154.69;5039651;27;129648;-74
2022/07/17 05:50:29;;;;;;;4.57;2.20;;;14.00;99.90;;;14.44;98.44;99155.25;5042927;27;131869;-75
2022/07/17 05:52:58;;;;;;;5.22;2.70;;;14.00;99.90;;;14.61;98.21;99159.66;5039049;27;122006;-73
2022/07/17 05:55:26;;;;;;;4.43;2.40;;;14.10;99.90;;;15.00;94.55;99159.94;5013560;28;121056;-76
2022/07/17 05:57:56;;;;;;;4.32;2.00;;;14.40;99.90;;;14.78;94.32;99157.78;5035820;27;130311;-74
2022/07/17 06:00:25;;;;;;;3.30;2.00;;;14.30;99.90;;;14.89;93.42;99159.66;5039845;27;130491;-75
2022/07/17 06:02:53;;;;;;;5.97;2.15;;;14.30;99.90;;;14.59;94.97;99156.47;5040634;27;119583;-75
2022/07/17 06:05:22;;;;;;;4.05;2.30;;;14.10;99.90;;;14.77;94.85;99153.47;5040398;27;119518;-73
2022/07/17 06:07:51;;;;;;;2.85;1.80;;;14.30;99.90;;;15.14;92.13;99154.06;5039698;27;129753;-75
2022/07/17 06:10:20;;;;;;;4.32;2.10;;;14.60;99.90;;;15.14;92.69;99147.81;5040951;27;128583;-74
2022/07/17 06:12:49;;;;;;;3.30;1.83;;;14.60;99.90;;;15.29;93.72;99152.53;4994660;27;119082;-72
2022/07/17 06:15:19;;;;;;;3.13;1.85;;;14.70;99.90;;;15.26;91.06;99151.28;4980496;28;120086;-73
2022/07/17 06:17:48;;;;;;;4.97;2.00;;;14.70;99.90;;;15.40;90.66;99152.78;4997100;28;130197;-74
2022/07/17 06:20:18;;;;;;;3.17;1.80;;;14.80;99.90;;;15.41;89.02;99146.97;4998065;28;129486;-76
2022/07/17 06:22:47;;;;;;;4.28;1.95;;;14.70;99.90;;;15.73;90.28;99155.16;4984419;28;118433;-74
2022/07/17 06:25:15;;;;;;;3.03;1.80;;;15.10;99.90;;;15.88;88.28;99150.84;4982500;28;119975;-75
2022/07/17 06:27:44;;;;;;;12.48;2.28;;;15.10;99.90;;;16.00;87.93;99160.88;4991275;28;128771;-73
2022/07/17 06:30:15;;;;;;;3.88;1.80;;;15.30;99.90;;;16.28;85.81;99160.75;4986017;28;129292;-74
2022/07/17 06:32:45;;;;;;;3.88;1.85;;;15.20;99.90;;;16.00;86.41;99169.09;4989358;28;120513;-75
2022/07/17 06:35:14;;;;;;;3.33;1.90;;;15.10;99.90;;;15.92;87.27;99175.56;4999340;27;119187;-76
2022/07/17 06:37:42;;;;;;;3.92;1.92;;;15.00;99.90;;;15.70;88.07;99176.97;4981594;27;129001;-72
2022/07/17 06:40:11;;;;;;;3.58;2.13;;;14.90;99.90;;;15.75;87.10;99177.50;4999575;28;130950;-74
2022/07/17 06:42:40;;;;;;;3.15;1.80;;;14.90;99.90;;;15.67;87.51;99181.19;5001690;27;124574;-74
2022/07/17 06:45:10;;;;;;;3.58;1.98;;;14.90;99.90;;;15.73;86.44;99193.47;4974418;28;121754;-75
2022/07/17 06:47:39;;;;;;;3.22;1.77;;;15.00;99.90;;;15.85;86.28;99176.19;4985743;28;131474;-74
2022/07/17 06:50:10;;;;;;;3.90;2.00;;;15.10;99.90;;;15.89;85.39;99192.69;4989294;27;129348;-74
2022/07/17 06:52:39;;;;;;;3.53;1.65;;;15.20;99.90;;;16.41;83.77;99185.25;4983095;28;119975;-74
2022/07/17 06:55:09;;;;;;;6.50;2.10;;;15.50;99.90;;;16.85;81.25;99183.03;5001582;28;119569;-74
2022/07/17 06:57:37;;;;;;;4.55;2.10;;;15.80;99.90;;;17.21;81.61;99188.44;4986658;27;130792;-73
2022/07/17 07:00:08;;;;;;;3.53;1.98;;;16.10;99.90;;;17.02;80.36;99192.81;5003864;27;129680;-73
2022/07/17 07:02:37;;;;;;;3.33;1.80;;;15.90;99.90;;;17.12;79.47;99193.38;5005999;28;119742;-73
2022/07/17 07:05:09;;;;;;;3.95;2.08;;;15.90;99.90;;;17.09;80.47;99203.09;4987684;28;119413;-74
2022/07/17 07:07:39;;;;;;;2.85;1.50;;;15.90;99.90;;;16.98;79.05;99196.63;4988383;27;130044;-72
2022/07/17 07:10:08;;;;;;;3.42;1.92;;;15.80;99.90;;;17.25;78.11;99195.59;4990027;28;128676;-75
2022/07/17 07:12:37;;;;;;;4.47;1.90;;;16.00;99.90;;;17.69;76.14;99210.06;5006201;27;121368;-74
2022/07/17 07:15:07;;;;;;;4.60;1.50;;;16.50;99.90;;;17.72;76.61;99195.63;5000283;27;119417;-74
2022/07/17 07:17:37;;;;;;;3.30;1.63;;;16.50;99.90;;;18.00;75.38;99205.47;5005974;28;130759;-74
2022/07/17 07:20:06;;;;;;;3.05;1.42;;;16.40;99.90;;;18.10;74.63;99202.88;5004567;27;130243;-74
2022/07/17 07:22:37;;;;;;;3.17;1.35;;;16.50;99.90;;;17.52;77.46;99203.91;5006060;27;120241;-75
2022/07/17 07:25:06;;;;;;;2.83;1.52;;;16.20;99.90;;;17.86;75.54;99206.81;5003322;27;119658;-75
2022/07/17 07:27:35;;;;;;;4.43;1.77;;;16.30;99.90;;;17.89;75.60;99208.84;5000975;28;130889;-75
2022/07/17 07:30:03;;;;;;;3.38;1.83;;;16.30;99.90;;;18.09;74.91;99211.50;5001119;28;130010;-73
2022/07/17 07:32:32;;;;;;;3.85;1.80;;;16.50;99.90;;;17.27;76.80;99208.16;5003251;27;121977;-76
2022/07/17 07:35:00;;;;;;;2.88;1.40;;;16.10;99.90;;;17.50;77.65;99205.41;5001351;27;121856;-74
2022/07/17 07:37:29;;;;;;;3.03;1.60;;;16.20;99.90;;;18.05;75.65;99218.91;5002943;27;129727;-76
2022/07/17 07:39:59;;;;;;;2.55;1.50;;;16.40;99.90;;;17.94;74.28;99219.50;4992573;28;129147;-75
2022/07/17 07:42:27;;;;;;;4.05;1.70;;;16.50;99.90;;;18.20;74.45;99217.97;4991007;28;119531;-75
2022/07/17 07:44:57;;;;;;;5.25;1.80;;;16.90;99.90;;;18.39;72.58;99222.53;4997664;28;120372;-78
2022/07/17 07:47:25;;;;;;;3.42;1.60;;;16.90;99.90;;;19.09;70.60;99222.25;4976579;27;130321;-73
2022/07/17 07:49:54;;;;;;;5.00;1.52;;;17.40;99.90;;;19.52;67.67;99219.97;5007196;28;128463;-73
2022/07/17 07:52:23;;;;;;;3.90;1.60;;;17.60;99.90;;;19.82;66.29;99230.09;5021526;28;120155;-72
2022/07/17 07:54:51;;;;;;;3.58;1.52;;;17.60;99.90;;;19.48;68.26;99230.16;5021989;28;119699;-74
2022/07/17 07:57:22;;;;;;;3.22;1.40;;;17.40;99.90;;;19.74;67.40;99224.50;5022113;28;131642;-74
2022/07/17 07:59:50;;;;;;;4.00;1.50;;;17.70;99.90;;;19.02;68.05;99223.75;5023691;28;129203;-74
2022/07/17 08:02:18;;;;;;;4.20;1.55;;;17.10;99.90;;;19.04;67.97;99224.19;5021497;28;119489;-74
2022/07/17 08:04:47;;;;;;;4.57;1.92;;;17.30;99.90;;;19.24;68.92;99221.25;5021532;28;119804;-77
2022/07/17 08:07:16;;;;;;;3.42;1.70;;;17.60;99.90;;;18.88;69.46;99225.56;5021058;28;129981;-76
2022/07/17 08:09:44;;;;;;;3.60;1.67;;;17.30;99.90;;;19.46;68.45;99235.25;5021334;28;129786;-74
2022/07/17 08:12:12;;;;;;;4.00;1.60;;;17.70;99.90;;;19.44;69.15;99235.63;5006199;28;118398;-78
2022/07/17 08:14:43;;;;;;;3.55;1.60;;;17.50;99.90;;;18.54;70.51;99233.72;5006999;28;118678;-76
2022/07/17 08:17:12;;;;;;;2.85;1.50;;;17.00;99.90;;;18.55;72.25;99229.81;5020986;28;129904;-75
2022/07/17 08:19:41;;;;;;;4.57;1.77;;;17.20;99.90;;;19.03;71.77;99236.34;5021169;28;129496;-79
2022/07/17 08:22:10;;;;;;;4.47;1.80;;;17.60;99.90;;;18.86;70.53;99234.97;5020111;28;122304;-75
2022/07/17 08:24:38;;;;;;;5.70;1.40;;;17.50;99.90;;;18.79;69.47;99236.81;5021245;28;122561;-75
2022/07/17 08:27:07;;;;;;;3.22;1.67;;;17.40;99.90;;;18.79;70.08;99239.56;5020883;28;129951;-74
2022/07/17 08:29:36;;;;;;;3.67;1.75;;;17.50;99.90;;;18.80;70.62;99224.66;5020943;28;129481;-75
2022/07/17 08:32:07;;;;;;;2.47;1.33;;;17.50;99.90;;;18.41;71.85;99233.94;5021131;28;119694;-75
2022/07/17 08:34:35;;;;;;;4.82;1.92;;;17.10;99.90;;;18.29;72.74;99234.16;5021209;28;119589;-76
2022/07/17 08:37:04;;;;;;;4.13;1.70;;;17.20;99.90;;;18.06;73.19;99235.00;5020717;28;129823;-80
2022/07/17 08:39:33;;;;;;;4.30;1.50;;;17.10;99.90;;;18.08;72.53;99234.66;5021456;28;129915;-73
2022/07/17 08:42:03;;;;;;;3.92;1.63;;;17.10;99.90;;;18.78;71.57;99229.75;5021369;28;119996;-76
2022/07/17 08:44:32;;;;;;;2.35;1.42;;;17.60;99.90;;;18.86;72.12;99226.72;5021166;28;119929;-73
2022/07/17 08:47:01;;;;;;;2.28;1.40;;;17.60;99.90;;;18.59;71.07;99245.19;5019153;28;130486;-76
2022/07/17 08:49:33;;;;;;;3.22;1.52;;;17.40;99.90;;;18.29;72.41;99234.97;5020817;28;129414;-72
2022/07/17 08:52:02;;;;;;;2.15;1.40;;;17.20;99.90;;;18.63;69.99;99237.78;5021071;28;119823;-74
2022/07/17 08:54:31;;;;;;;3.30;1.83;;;17.20;99.90;;;18.73;71.15;99236.34;5002980;28;119453;-74
2022/07/17 08:57:00;;;;;;;6.07;1.70;;;17.30;99.90;;;18.94;71.31;99238.59;4988298;28;128794;-75
2022/07/17 08:59:29;;;;;;;4.53;1.40;;;17.70;99.90;;;19.42;69.70;99242.69;5005869;28;129164;-73
2022/07/17 09:01:59;;;;;;;2.95;1.50;;;18.00;99.90;;;19.65;67.83;99248.81;5021139;28;120248;-72
2022/07/17 09:04:30;;;;;;;3.08;1.63;;;17.70;99.90;;;19.25;70.62;99244.06;5006899;28;119743;-74
2022/07/17 09:07:02;;;;;;;2.25;1.33;;;18.00;99.90;;;19.10;68.39;99243.09;5020472;28;129934;-75
2022/07/17 09:09:33;;;;;;;3.13;1.60;;;17.80;99.90;;;19.28;68.72;99244.09;5005880;28;128725;-73
2022/07/17 09:12:04;;;;;;;5.78;1.88;;;17.90;99.90;;;19.68;67.74;99256.31;5019567;28;122031;-74
2022/07/17 09:14:40;;;;;;;2.92;1.70;;;18.40;99.90;;;19.47;65.79;99253.34;5020687;28;121885;-74
2022/07/17 09:17:11;;;;;;;2.90;1.60;;;18.10;99.90;;;19.03;68.49;99252.06;5020335;28;130123;-74
2022/07/17 09:19:45;;;;;;;4.70;1.70;;;17.90;99.90;;;18.85;70.00;99254.59;5005127;28;128776;-73
2022/07/17 09:22:17;;;;;;;3.95;1.58;;;17.70;99.90;;;19.01;69.26;99255.19;5019597;27;120108;-74
2022/07/17 09:24:49;;;;;;;3.33;1.65;;;17.80;99.90;;;18.80;69.61;99257.63;5020636;28;119074;-75
2022/07/17 09:27:33;;;;;;;4.55;1.73;;;17.70;99.90;;;18.83;68.57;99259.66;5020097;28;129896;-75
2022/07/17 09:30:05;;;;;;;3.10;1.42;;;17.80;99.90;;;19.49;68.03;99257.28;5020939;28;130236;-75
2022/07/17 09:32:37;;;;;;;3.22;1.60;;;18.10;99.90;;;19.60;65.30;99257.38;5002464;28;119377;-74
2022/07/17 09:35:09;;;;;;;3.55;1.65;;;18.30;99.90;;;19.28;66.86;99266.09;5005885;28;118712;-74
2022/07/17 09:37:38;;;;;;;3.42;1.55;;;18.20;99.90;;;19.15;67.25;99254.56;5019609;28;130530;-75
2022/07/17 09:40:11;;;;;;;2.88;1.70;;;18.10;99.90;;;20.14;63.79;99255.13;5005645;28;129474;-77
2022/07/17 09:42:39;;;;;;;5.20;1.70;;;18.90;99.90;;;20.99;60.23;99261.59;5020507;28;119871;-75
2022/07/17 09:45:11;;;;;;;2.53;1.40;;;19.30;98.50;;;21.16;60.93;99252.59;5020530;28;119437;-75
2022/07/17 09:47:40;;;;;;;3.22;1.80;;;19.50;99.40;;;21.56;57.65;99246.41;5019998;28;130029;-75
2022/07/17 09:50:10;;;;;;;5.05;1.75;;;19.70;91.60;;;21.04;59.41;99252.16;5005192;28;129081;-76
2022/07/17 09:52:39;;;;;;;2.50;1.25;;;19.20;97.80;;;20.86;60.48;99263.09;5020500;28;120027;-73
2022/07/17 09:55:09;;;;;;;3.70;1.45;;;19.10;97.00;;;21.20;58.97;99260.88;5005661;28;119026;-75
2022/07/17 09:57:42;;;;;;;4.28;1.83;;;19.10;93.60;;;20.46;59.77;99262.84;5004631;28;129812;-77
2022/07/17 10:00:12;;;;;;;3.30;1.63;;;18.90;91.60;;;19.97;62.32;99255.78;5019813;28;130564;-77
2022/07/17 10:02:43;;;;;;;3.55;1.42;;;18.60;99.20;;;19.64;62.84;99255.47;5018664;28;122240;-73
2022/07/17 10:05:16;;;;;;;2.75;1.30;;;18.40;98.80;;;20.14;62.39;99254.38;5019736;28;122195;-73
2022/07/17 10:07:45;;;;;;;2.63;1.38;;;18.80;99.60;;;20.64;60.72;99255.50;5005043;28;129479;-77
2022/07/17 10:10:16;;;;;;;4.43;1.73;;;19.20;93.70;;;20.70;59.20;99260.66;4987038;28;128808;-75
2022/07/17 10:12:48;;;;;;;2.63;1.30;;;19.10;90.10;;;21.66;57.63;99256.66;5019650;28;119610;-75
2022/07/17 10:15:20;;;;;;;4.03;1.38;;;19.90;84.60;;;22.25;54.93;99250.75;5020147;28;119855;-75
2022/07/17 10:17:48;;;;;;;4.00;1.60;;;20.00;74.40;;;22.80;53.05;99255.00;5004947;28;129037;-73
2022/07/17 10:20:27;;;;;;;2.70;1.38;;;20.40;57.80;;;22.13;53.77;99245.63;5019905;28;129677;-75
2022/07/17 10:22:55;;;;;;;5.07;1.60;;;20.00;62.50;;;21.66;55.38;99246.41;5019837;28;119847;-78